sensor_id;sensor_type;location;lat;lon;timestamp;P1;P2;P0
65556;PMS3003;52200;53.490;14.376;2024-03-08T00:01:47;43.40;28.40;17.00
65556;PMS3003;52200;53.490;14.376;2024-03-08T00:04:13;54.50;29.75;18.00
65556;PMS3003;52200;53.490;14.376;2024-03-08T00:06:40;52.80;34.20;20.40
65556;PMS3003;52200;53.490;14.376;2024-03-08T00:09:06;59.80;37.00;20.40
65556;PMS3003;52200;53.490;14.376;2024-03-08T00:11:33;59.00;38.80;19.00
65556;PMS3003;52200;53.490;14.376;2024-03-08T00:14:00;62.60;40.20;22.40
65556;PMS3003;52200;53.490;14.376;2024-03-08T00:16:25;62.75;40.00;22.00
65556;PMS3003;52200;53.490;14.376;2024-03-08T00:18:50;62.50;39.25;24.50
65556;PMS3003;52200;53.490;14.376;2024-03-08T00:21:16;58.75;38.00;21.00
65556;PMS3003;52200;53.490;14.376;2024-03-08T00:23:41;57.00;35.50;19.00
65556;PMS3003;52200;53.490;14.376;2024-03-08T00:26:07;68.25;38.50;21.75
65556;PMS3003;52200;53.490;14.376;2024-03-08T00:28:32;70.25;44.25;23.50
65556;PMS3003;52200;53.490;14.376;2024-03-08T00:30:59;79.40;52.80;31.00
65556;PMS3003;52200;53.490;14.376;2024-03-08T00:33:25;83.20;54.60;32.00
65556;PMS3003;52200;53.490;14.376;2024-03-08T00:35:52;82.80;51.20;31.00
65556;PMS3003;52200;53.490;14.376;2024-03-08T00:38:18;81.00;52.40;30.60
65556;PMS3003;52200;53.490;14.376;2024-03-08T00:40:44;87.50;52.25;28.00
65556;PMS3003;52200;53.490;14.376;2024-03-08T00:43:09;84.00;53.00;29.75
65556;PMS3003;52200;53.490;14.376;2024-03-08T00:45:35;72.00;47.50;25.50
65556;PMS3003;52200;53.490;14.376;2024-03-08T00:48:02;63.20;39.80;23.00
65556;PMS3003;52200;53.490;14.376;2024-03-08T00:50:28;65.60;44.80;24.00
65556;PMS3003;52200;53.490;14.376;2024-03-08T00:52:53;57.25;36.00;20.50
65556;PMS3003;52200;53.490;14.376;2024-03-08T00:55:19;69.80;42.60;23.80
65556;PMS3003;52200;53.490;14.376;2024-03-08T00:57:45;61.25;43.25;23.00
65556;PMS3003;52200;53.490;14.376;2024-03-08T01:00:10;63.25;42.75;22.75
65556;PMS3003;52200;53.490;14.376;2024-03-08T01:02:37;57.40;37.00;23.20
65556;PMS3003;52200;53.490;14.376;2024-03-08T01:05:04;61.80;37.20;20.40
65556;PMS3003;52200;53.490;14.376;2024-03-08T01:07:32;49.40;31.00;19.80
65556;PMS3003;52200;53.490;14.376;2024-03-08T01:09:59;40.20;23.60;15.80
65556;PMS3003;52200;53.490;14.376;2024-03-08T01:12:25;39.40;28.80;14.40
65556;PMS3003;52200;53.490;14.376;2024-03-08T01:14:51;50.00;29.00;16.00
65556;PMS3003;52200;53.490;14.376;2024-03-08T01:17:17;44.25;28.00;14.50
65556;PMS3003;52200;53.490;14.376;2024-03-08T01:19:42;41.75;25.75;14.00
65556;PMS3003;52200;53.490;14.376;2024-03-08T01:22:10;44.40;30.80;15.80
65556;PMS3003;52200;53.490;14.376;2024-03-08T01:24:35;54.80;32.40;19.40
65556;PMS3003;52200;53.490;14.376;2024-03-08T01:27:02;56.40;37.00;20.00
65556;PMS3003;52200;53.490;14.376;2024-03-08T01:29:28;58.80;41.60;24.20
65556;PMS3003;52200;53.490;14.376;2024-03-08T01:31:54;44.60;32.00;18.20
65556;PMS3003;52200;53.490;14.376;2024-03-08T01:34:21;50.20;40.80;22.20
65556;PMS3003;52200;53.490;14.376;2024-03-08T01:36:47;57.00;37.60;21.40
65556;PMS3003;52200;53.490;14.376;2024-03-08T01:39:13;52.00;28.60;17.00
65556;PMS3003;52200;53.490;14.376;2024-03-08T01:41:39;44.40;28.20;17.40
65556;PMS3003;52200;53.490;14.376;2024-03-08T01:44:05;58.80;29.60;15.80
65556;PMS3003;52200;53.490;14.376;2024-03-08T01:46:32;54.60;29.40;17.00
65556;PMS3003;52200;53.490;14.376;2024-03-08T01:48:58;47.00;26.60;17.20
65556;PMS3003;52200;53.490;14.376;2024-03-08T01:51:28;48.40;30.40;18.00
65556;PMS3003;52200;53.490;14.376;2024-03-08T01:53:54;50.60;28.60;18.60
65556;PMS3003;52200;53.490;14.376;2024-03-08T01:56:22;53.20;33.00;19.40
65556;PMS3003;52200;53.490;14.376;2024-03-08T01:58:50;56.00;34.40;18.40
65556;PMS3003;52200;53.490;14.376;2024-03-08T02:01:16;58.00;36.20;18.80
65556;PMS3003;52200;53.490;14.376;2024-03-08T02:03:44;50.00;37.40;19.00
65556;PMS3003;52200;53.490;14.376;2024-03-08T02:06:13;54.20;33.40;20.00
65556;PMS3003;52200;53.490;14.376;2024-03-08T02:08:41;57.00;34.40;19.00
65556;PMS3003;52200;53.490;14.376;2024-03-08T02:11:09;45.40;29.00;14.80
65556;PMS3003;52200;53.490;14.376;2024-03-08T02:13:35;42.00;28.75;17.75
65556;PMS3003;52200;53.490;14.376;2024-03-08T02:16:01;53.00;33.00;17.00
65556;PMS3003;52200;53.490;14.376;2024-03-08T02:18:27;51.25;36.25;22.00
65556;PMS3003;52200;53.490;14.376;2024-03-08T02:20:57;58.00;32.20;18.00
65556;PMS3003;52200;53.490;14.376;2024-03-08T02:23:24;49.60;33.00;18.40
65556;PMS3003;52200;53.490;14.376;2024-03-08T02:25:51;47.00;30.20;16.80
65556;PMS3003;52200;53.490;14.376;2024-03-08T02:28:18;55.60;35.00;21.00
65556;PMS3003;52200;53.490;14.376;2024-03-08T02:30:45;48.00;28.80;17.00
65556;PMS3003;52200;53.490;14.376;2024-03-08T02:33:17;57.40;36.20;22.40
65556;PMS3003;52200;53.490;14.376;2024-03-08T02:35:46;48.00;30.00;16.40
65556;PMS3003;52200;53.490;14.376;2024-03-08T02:38:13;52.40;34.40;18.80
65556;PMS3003;52200;53.490;14.376;2024-03-08T02:40:42;52.20;30.60;17.80
65556;PMS3003;52200;53.490;14.376;2024-03-08T02:43:08;49.80;33.20;19.00
65556;PMS3003;52200;53.490;14.376;2024-03-08T02:45:34;44.00;29.00;16.40
65556;PMS3003;52200;53.490;14.376;2024-03-08T02:48:00;44.25;26.25;16.00
65556;PMS3003;52200;53.490;14.376;2024-03-08T02:50:25;43.50;33.00;19.00
65556;PMS3003;52200;53.490;14.376;2024-03-08T02:52:51;53.50;30.75;16.00
65556;PMS3003;52200;53.490;14.376;2024-03-08T02:55:16;50.00;31.00;18.00
65556;PMS3003;52200;53.490;14.376;2024-03-08T02:57:42;54.75;31.75;20.50
65556;PMS3003;52200;53.490;14.376;2024-03-08T03:00:14;59.80;33.60;19.20
65556;PMS3003;52200;53.490;14.376;2024-03-08T03:02:40;50.20;31.40;16.20
65556;PMS3003;52200;53.490;14.376;2024-03-08T03:05:07;54.80;31.60;18.80
65556;PMS3003;52200;53.490;14.376;2024-03-08T03:07:34;52.00;30.60;17.80
65556;PMS3003;52200;53.490;14.376;2024-03-08T03:10:00;48.00;33.40;18.40
65556;PMS3003;52200;53.490;14.376;2024-03-08T03:12:29;48.40;29.80;18.60
65556;PMS3003;52200;53.490;14.376;2024-03-08T03:14:56;53.00;33.00;18.80
65556;PMS3003;52200;53.490;14.376;2024-03-08T03:17:25;65.80;32.20;18.80
65556;PMS3003;52200;53.490;14.376;2024-03-08T03:19:52;43.40;26.80;17.40
65556;PMS3003;52200;53.490;14.376;2024-03-08T03:22:18;46.00;29.40;17.80
65556;PMS3003;52200;53.490;14.376;2024-03-08T03:24:44;43.80;27.60;15.00
65556;PMS3003;52200;53.490;14.376;2024-03-08T03:27:11;52.80;31.40;17.80
65556;PMS3003;52200;53.490;14.376;2024-03-08T03:29:40;42.40;26.40;16.20
65556;PMS3003;52200;53.490;14.376;2024-03-08T03:32:11;49.60;27.00;16.00
65556;PMS3003;52200;53.490;14.376;2024-03-08T03:34:37;41.80;27.60;14.80
65556;PMS3003;52200;53.490;14.376;2024-03-08T03:37:03;50.60;30.00;17.00
65556;PMS3003;52200;53.490;14.376;2024-03-08T03:39:29;52.40;28.40;17.20
65556;PMS3003;52200;53.490;14.376;2024-03-08T03:41:59;46.60;27.60;18.00
65556;PMS3003;52200;53.490;14.376;2024-03-08T03:44:27;54.00;30.20;17.60
65556;PMS3003;52200;53.490;14.376;2024-03-08T03:46:53;57.00;31.60;18.40
65556;PMS3003;52200;53.490;14.376;2024-03-08T03:49:18;59.50;32.25;17.75
65556;PMS3003;52200;53.490;14.376;2024-03-08T03:51:47;54.25;32.50;16.25
65556;PMS3003;52200;53.490;14.376;2024-03-08T03:54:12;50.00;32.40;17.60
65556;PMS3003;52200;53.490;14.376;2024-03-08T03:56:38;65.75;35.75;20.75
65556;PMS3003;52200;53.490;14.376;2024-03-08T03:59:05;61.20;36.80;20.20
65556;PMS3003;52200;53.490;14.376;2024-03-08T04:01:31;47.40;32.60;20.80
65556;PMS3003;52200;53.490;14.376;2024-03-08T04:03:57;59.20;36.20;18.20
65556;PMS3003;52200;53.490;14.376;2024-03-08T04:06:23;46.00;31.50;17.75
65556;PMS3003;52200;53.490;14.376;2024-03-08T04:08:49;58.00;31.40;18.00
65556;PMS3003;52200;53.490;14.376;2024-03-08T04:11:14;51.75;36.00;20.00
65556;PMS3003;52200;53.490;14.376;2024-03-08T04:13:42;56.80;33.60;21.00
65556;PMS3003;52200;53.490;14.376;2024-03-08T04:16:08;54.60;31.60;20.00
65556;PMS3003;52200;53.490;14.376;2024-03-08T04:18:34;53.00;37.00;22.25
65556;PMS3003;52200;53.490;14.376;2024-03-08T04:21:01;55.60;36.40;20.60
65556;PMS3003;52200;53.490;14.376;2024-03-08T04:23:27;55.80;30.60;17.60
65556;PMS3003;52200;53.490;14.376;2024-03-08T04:25:53;53.60;35.80;20.20
65556;PMS3003;52200;53.490;14.376;2024-03-08T04:28:19;56.00;36.50;20.25
65556;PMS3003;52200;53.490;14.376;2024-03-08T04:30:44;53.25;34.75;20.25
65556;PMS3003;52200;53.490;14.376;2024-03-08T04:33:11;48.60;33.20;20.00
65556;PMS3003;52200;53.490;14.376;2024-03-08T04:35:36;50.25;30.75;20.50
65556;PMS3003;52200;53.490;14.376;2024-03-08T04:38:02;57.25;37.75;20.00
65556;PMS3003;52200;53.490;14.376;2024-03-08T04:40:30;44.60;33.00;19.20
65556;PMS3003;52200;53.490;14.376;2024-03-08T04:42:56;55.60;32.00;15.80
65556;PMS3003;52200;53.490;14.376;2024-03-08T04:45:24;51.80;34.80;21.20
65556;PMS3003;52200;53.490;14.376;2024-03-08T04:47:51;47.80;32.40;19.00
65556;PMS3003;52200;53.490;14.376;2024-03-08T04:50:17;64.80;32.60;20.40
65556;PMS3003;52200;53.490;14.376;2024-03-08T04:52:43;49.80;30.60;16.00
65556;PMS3003;52200;53.490;14.376;2024-03-08T04:55:09;62.50;33.00;19.00
65556;PMS3003;52200;53.490;14.376;2024-03-08T04:57:34;52.25;34.00;20.25
65556;PMS3003;52200;53.490;14.376;2024-03-08T05:00:01;53.00;33.50;20.25
65556;PMS3003;52200;53.490;14.376;2024-03-08T05:02:29;54.00;35.40;19.80
65556;PMS3003;52200;53.490;14.376;2024-03-08T05:04:54;46.00;28.75;19.00
65556;PMS3003;52200;53.490;14.376;2024-03-08T05:07:20;63.75;37.00;17.25
65556;PMS3003;52200;53.490;14.376;2024-03-08T05:09:45;53.25;36.75;20.00
65556;PMS3003;52200;53.490;14.376;2024-03-08T05:12:16;51.20;31.40;16.60
65556;PMS3003;52200;53.490;14.376;2024-03-08T05:14:42;45.80;33.80;18.20
65556;PMS3003;52200;53.490;14.376;2024-03-08T05:17:08;48.75;30.00;19.75
65556;PMS3003;52200;53.490;14.376;2024-03-08T05:19:34;47.20;31.20;18.20
65556;PMS3003;52200;53.490;14.376;2024-03-08T05:22:01;52.20;30.20;20.00
65556;PMS3003;52200;53.490;14.376;2024-03-08T05:24:35;47.80;30.40;15.80
65556;PMS3003;52200;53.490;14.376;2024-03-08T05:27:00;45.00;30.00;16.60
65556;PMS3003;52200;53.490;14.376;2024-03-08T05:29:27;61.00;32.80;18.00
65556;PMS3003;52200;53.490;14.376;2024-03-08T05:31:54;48.20;27.80;16.40
65556;PMS3003;52200;53.490;14.376;2024-03-08T05:34:20;49.80;31.00;19.00
65556;PMS3003;52200;53.490;14.376;2024-03-08T05:36:46;52.20;32.20;19.20
65556;PMS3003;52200;53.490;14.376;2024-03-08T05:39:14;60.00;33.40;17.00
65556;PMS3003;52200;53.490;14.376;2024-03-08T05:41:41;51.80;33.80;18.00
65556;PMS3003;52200;53.490;14.376;2024-03-08T05:44:06;53.00;35.00;22.20
65556;PMS3003;52200;53.490;14.376;2024-03-08T05:46:32;60.40;41.00;22.80
65556;PMS3003;52200;53.490;14.376;2024-03-08T05:48:58;55.80;33.20;18.00
65556;PMS3003;52200;53.490;14.376;2024-03-08T05:51:24;51.50;35.00;20.50
65556;PMS3003;52200;53.490;14.376;2024-03-08T05:53:52;50.40;34.20;18.80
65556;PMS3003;52200;53.490;14.376;2024-03-08T05:56:18;55.80;31.60;15.20
65556;PMS3003;52200;53.490;14.376;2024-03-08T05:58:44;47.20;32.80;18.00
65556;PMS3003;52200;53.490;14.376;2024-03-08T06:01:10;57.60;35.60;20.00
65556;PMS3003;52200;53.490;14.376;2024-03-08T06:03:37;49.20;32.00;20.00
65556;PMS3003;52200;53.490;14.376;2024-03-08T06:06:10;55.60;34.60;19.40
65556;PMS3003;52200;53.490;14.376;2024-03-08T06:08:37;43.40;28.80;19.20
65556;PMS3003;52200;53.490;14.376;2024-03-08T06:11:02;47.75;35.75;20.00
65556;PMS3003;52200;53.490;14.376;2024-03-08T06:13:28;54.75;34.00;20.00
65556;PMS3003;52200;53.490;14.376;2024-03-08T06:15:56;46.00;30.20;16.80
65556;PMS3003;52200;53.490;14.376;2024-03-08T06:18:21;50.25;32.50;18.00
65556;PMS3003;52200;53.490;14.376;2024-03-08T06:20:47;58.50;31.75;18.50
65556;PMS3003;52200;53.490;14.376;2024-03-08T06:23:13;63.50;39.00;20.25
65556;PMS3003;52200;53.490;14.376;2024-03-08T06:25:43;57.20;32.80;20.00
65556;PMS3003;52200;53.490;14.376;2024-03-08T06:28:11;51.00;34.60;25.40
65556;PMS3003;52200;53.490;14.376;2024-03-08T06:30:36;57.25;40.25;22.75
65556;PMS3003;52200;53.490;14.376;2024-03-08T06:33:02;53.00;38.75;22.75
65556;PMS3003;52200;53.490;14.376;2024-03-08T06:35:27;54.00;37.75;21.50
65556;PMS3003;52200;53.490;14.376;2024-03-08T06:37:53;68.00;42.50;23.75
65556;PMS3003;52200;53.490;14.376;2024-03-08T06:40:18;57.25;39.50;24.00
65556;PMS3003;52200;53.490;14.376;2024-03-08T06:42:44;64.00;45.50;23.00
65556;PMS3003;52200;53.490;14.376;2024-03-08T06:45:10;66.00;36.60;24.80
65556;PMS3003;52200;53.490;14.376;2024-03-08T06:47:37;55.20;36.00;22.60
65556;PMS3003;52200;53.490;14.376;2024-03-08T06:50:03;75.00;47.75;27.00
65556;PMS3003;52200;53.490;14.376;2024-03-08T06:52:29;63.00;40.40;24.60
65556;PMS3003;52200;53.490;14.376;2024-03-08T06:54:54;62.25;39.50;22.25
65556;PMS3003;52200;53.490;14.376;2024-03-08T06:57:20;47.25;34.25;21.75
65556;PMS3003;52200;53.490;14.376;2024-03-08T06:59:47;65.20;39.00;23.40
65556;PMS3003;52200;53.490;14.376;2024-03-08T07:02:13;63.20;32.60;21.60
65556;PMS3003;52200;53.490;14.376;2024-03-08T07:04:38;65.00;37.25;22.50
65556;PMS3003;52200;53.490;14.376;2024-03-08T07:07:04;57.25;40.50;24.25
65556;PMS3003;52200;53.490;14.376;2024-03-08T07:09:30;59.40;41.40;21.80
65556;PMS3003;52200;53.490;14.376;2024-03-08T07:11:55;56.00;39.25;23.25
65556;PMS3003;52200;53.490;14.376;2024-03-08T07:14:21;63.50;40.50;25.25
65556;PMS3003;52200;53.490;14.376;2024-03-08T07:16:47;62.60;40.00;23.40
65556;PMS3003;52200;53.490;14.376;2024-03-08T07:19:13;70.40;49.80;29.20
65556;PMS3003;52200;53.490;14.376;2024-03-08T07:21:39;74.50;49.00;29.00
65556;PMS3003;52200;53.490;14.376;2024-03-08T07:24:04;71.00;47.25;28.25
65556;PMS3003;52200;53.490;14.376;2024-03-08T07:26:44;67.80;45.40;28.00
65556;PMS3003;52200;53.490;14.376;2024-03-08T07:29:14;69.20;45.60;27.80
65556;PMS3003;52200;53.490;14.376;2024-03-08T07:31:40;67.00;46.25;28.50
65556;PMS3003;52200;53.490;14.376;2024-03-08T07:34:40;69.60;45.20;29.00
65556;PMS3003;52200;53.490;14.376;2024-03-08T07:37:06;69.50;48.75;28.00
65556;PMS3003;52200;53.490;14.376;2024-03-08T07:39:36;71.40;47.20;30.00
65556;PMS3003;52200;53.490;14.376;2024-03-08T07:42:02;79.80;49.80;30.40
65556;PMS3003;52200;53.490;14.376;2024-03-08T07:44:28;72.75;49.00;29.25
65556;PMS3003;52200;53.490;14.376;2024-03-08T07:46:54;68.20;45.00;28.60
65556;PMS3003;52200;53.490;14.376;2024-03-08T07:49:20;69.75;46.25;28.00
65556;PMS3003;52200;53.490;14.376;2024-03-08T07:51:45;57.00;41.75;23.25
65556;PMS3003;52200;53.490;14.376;2024-03-08T07:54:10;57.75;42.50;24.75
65556;PMS3003;52200;53.490;14.376;2024-03-08T07:56:36;66.25;45.00;24.75
65556;PMS3003;52200;53.490;14.376;2024-03-08T07:59:02;62.25;44.00;25.00
65556;PMS3003;52200;53.490;14.376;2024-03-08T08:01:29;61.00;43.60;25.20
65556;PMS3003;52200;53.490;14.376;2024-03-08T08:03:55;65.80;44.20;26.40
65556;PMS3003;52200;53.490;14.376;2024-03-08T08:06:21;63.60;44.20;26.60
65556;PMS3003;52200;53.490;14.376;2024-03-08T08:08:47;72.75;44.75;22.75
65556;PMS3003;52200;53.490;14.376;2024-03-08T08:11:12;53.25;37.50;23.50
65556;PMS3003;52200;53.490;14.376;2024-03-08T08:13:39;62.40;39.00;23.40
65556;PMS3003;52200;53.490;14.376;2024-03-08T08:16:07;58.00;40.40;24.60
65556;PMS3003;52200;53.490;14.376;2024-03-08T08:18:32;65.25;44.25;25.25
65556;PMS3003;52200;53.490;14.376;2024-03-08T08:20:58;59.75;40.50;22.00
65556;PMS3003;52200;53.490;14.376;2024-03-08T08:23:25;56.80;37.00;23.80
65556;PMS3003;52200;53.490;14.376;2024-03-08T08:25:51;65.00;40.80;24.80
65556;PMS3003;52200;53.490;14.376;2024-03-08T08:28:16;50.00;33.50;22.25
65556;PMS3003;52200;53.490;14.376;2024-03-08T08:30:45;60.20;38.20;22.00
65556;PMS3003;52200;53.490;14.376;2024-03-08T08:33:11;57.50;39.25;23.75
65556;PMS3003;52200;53.490;14.376;2024-03-08T08:35:37;49.80;36.00;21.40
65556;PMS3003;52200;53.490;14.376;2024-03-08T08:38:04;55.25;39.75;22.00
65556;PMS3003;52200;53.490;14.376;2024-03-08T08:40:29;54.80;36.40;20.20
65556;PMS3003;52200;53.490;14.376;2024-03-08T08:42:57;59.00;39.00;22.80
65556;PMS3003;52200;53.490;14.376;2024-03-08T08:45:23;51.40;38.00;20.20
65556;PMS3003;52200;53.490;14.376;2024-03-08T08:47:48;49.50;35.25;21.00
65556;PMS3003;52200;53.490;14.376;2024-03-08T08:50:14;49.80;36.00;21.80
65556;PMS3003;52200;53.490;14.376;2024-03-08T08:52:41;54.80;36.40;22.00
65556;PMS3003;52200;53.490;14.376;2024-03-08T08:55:10;46.60;33.20;19.40
65556;PMS3003;52200;53.490;14.376;2024-03-08T08:57:39;41.00;28.20;18.80
65556;PMS3003;52200;53.490;14.376;2024-03-08T09:00:05;50.20;29.60;18.00
65556;PMS3003;52200;53.490;14.376;2024-03-08T09:02:39;45.80;31.60;18.00
65556;PMS3003;52200;53.490;14.376;2024-03-08T09:05:06;46.80;26.60;16.80
65556;PMS3003;52200;53.490;14.376;2024-03-08T09:07:32;41.80;27.00;15.60
65556;PMS3003;52200;53.490;14.376;2024-03-08T09:09:59;57.40;41.20;24.80
65556;PMS3003;52200;53.490;14.376;2024-03-08T09:12:25;44.60;27.00;16.00
65556;PMS3003;52200;53.490;14.376;2024-03-08T09:14:51;36.40;23.40;14.80
65556;PMS3003;52200;53.490;14.376;2024-03-08T09:17:16;38.00;26.75;14.25
65556;PMS3003;52200;53.490;14.376;2024-03-08T09:19:45;39.60;23.60;14.00
65556;PMS3003;52200;53.490;14.376;2024-03-08T09:22:13;34.60;24.60;14.40
65556;PMS3003;52200;53.490;14.376;2024-03-08T09:24:39;38.50;25.25;14.75
65556;PMS3003;52200;53.490;14.376;2024-03-08T09:27:05;35.40;22.60;14.60
65556;PMS3003;52200;53.490;14.376;2024-03-08T09:29:31;34.00;23.50;15.75
65556;PMS3003;52200;53.490;14.376;2024-03-08T09:31:56;37.00;25.25;15.50
65556;PMS3003;52200;53.490;14.376;2024-03-08T09:34:22;34.75;23.00;12.00
65556;PMS3003;52200;53.490;14.376;2024-03-08T09:36:47;41.50;25.25;15.50
65556;PMS3003;52200;53.490;14.376;2024-03-08T09:39:13;33.75;25.50;16.00
65556;PMS3003;52200;53.490;14.376;2024-03-08T09:41:42;34.00;23.60;13.80
65556;PMS3003;52200;53.490;14.376;2024-03-08T09:44:09;37.60;28.00;14.20
65556;PMS3003;52200;53.490;14.376;2024-03-08T09:46:34;41.40;21.80;12.80
65556;PMS3003;52200;53.490;14.376;2024-03-08T09:49:00;32.25;20.50;12.00
65556;PMS3003;52200;53.490;14.376;2024-03-08T09:51:30;38.00;26.40;14.60
65556;PMS3003;52200;53.490;14.376;2024-03-08T09:54:00;41.20;27.80;16.00
65556;PMS3003;52200;53.490;14.376;2024-03-08T09:56:29;41.20;24.00;13.60
65556;PMS3003;52200;53.490;14.376;2024-03-08T09:58:59;39.60;25.80;15.00
65556;PMS3003;52200;53.490;14.376;2024-03-08T10:01:36;43.80;29.60;15.80
65556;PMS3003;52200;53.490;14.376;2024-03-08T10:04:04;40.00;24.20;13.40
65556;PMS3003;52200;53.490;14.376;2024-03-08T10:06:29;38.25;27.50;16.00
65556;PMS3003;52200;53.490;14.376;2024-03-08T10:08:56;39.80;25.60;13.60
65556;PMS3003;52200;53.490;14.376;2024-03-08T10:11:22;40.00;27.80;14.20
65556;PMS3003;52200;53.490;14.376;2024-03-08T10:13:49;37.40;23.80;13.80
65556;PMS3003;52200;53.490;14.376;2024-03-08T10:16:15;37.20;22.80;13.20
65556;PMS3003;52200;53.490;14.376;2024-03-08T10:18:42;41.60;26.20;15.40
65556;PMS3003;52200;53.490;14.376;2024-03-08T10:21:08;38.50;22.25;13.00
65556;PMS3003;52200;53.490;14.376;2024-03-08T10:23:35;32.80;20.60;14.00
65556;PMS3003;52200;53.490;14.376;2024-03-08T10:26:14;39.60;22.40;13.00
65556;PMS3003;52200;53.490;14.376;2024-03-08T10:28:45;42.00;23.00;12.80
65556;PMS3003;52200;53.490;14.376;2024-03-08T10:31:13;36.40;22.40;11.80
65556;PMS3003;52200;53.490;14.376;2024-03-08T10:33:40;30.80;22.80;12.60
65556;PMS3003;52200;53.490;14.376;2024-03-08T10:36:09;32.20;22.60;12.60
65556;PMS3003;52200;53.490;14.376;2024-03-08T10:38:36;30.80;21.00;11.00
65556;PMS3003;52200;53.490;14.376;2024-03-08T10:41:05;32.60;21.80;12.00
65556;PMS3003;52200;53.490;14.376;2024-03-08T10:43:47;32.60;23.20;14.00
65556;PMS3003;52200;53.490;14.376;2024-03-08T10:46:38;30.20;21.40;13.00
65556;PMS3003;52200;53.490;14.376;2024-03-08T10:49:08;32.40;22.20;13.00
65556;PMS3003;52200;53.490;14.376;2024-03-08T10:51:42;36.00;24.60;14.00
65556;PMS3003;52200;53.490;14.376;2024-03-08T10:54:09;30.00;21.40;13.00
65556;PMS3003;52200;53.490;14.376;2024-03-08T10:56:36;31.60;21.80;11.80
65556;PMS3003;52200;53.490;14.376;2024-03-08T10:59:02;38.20;25.00;14.60
65556;PMS3003;52200;53.490;14.376;2024-03-08T11:01:29;34.00;22.00;13.20
65556;PMS3003;52200;53.490;14.376;2024-03-08T11:03:55;29.40;22.60;13.80
65556;PMS3003;52200;53.490;14.376;2024-03-08T11:06:31;34.50;22.00;13.00
65556;PMS3003;52200;53.490;14.376;2024-03-08T11:14:49;35.00;24.00;12.40
65556;PMS3003;52200;53.490;14.376;2024-03-08T11:17:16;39.40;23.40;12.80
65556;PMS3003;52200;53.490;14.376;2024-03-08T11:19:46;30.40;20.40;12.00
65556;PMS3003;52200;53.490;14.376;2024-03-08T11:23:13;36.00;20.80;13.40
65556;PMS3003;52200;53.490;14.376;2024-03-08T11:31:25;32.60;20.20;11.60
65556;PMS3003;52200;53.490;14.376;2024-03-08T11:33:40;35.60;23.40;11.40
65556;PMS3003;52200;53.490;14.376;2024-03-08T11:36:27;30.40;20.20;12.40
65556;PMS3003;52200;53.490;14.376;2024-03-08T11:38:52;26.80;18.20;11.00
65556;PMS3003;52200;53.490;14.376;2024-03-08T11:41:20;33.40;23.40;11.60
65556;PMS3003;52200;53.490;14.376;2024-03-08T11:43:46;30.40;20.00;12.40
65556;PMS3003;52200;53.490;14.376;2024-03-08T11:46:13;30.80;18.60;10.80
65556;PMS3003;52200;53.490;14.376;2024-03-08T11:48:41;31.40;21.00;12.20
65556;PMS3003;52200;53.490;14.376;2024-03-08T11:51:08;30.20;19.60;11.40
65556;PMS3003;52200;53.490;14.376;2024-03-08T11:53:39;29.60;19.60;10.00
65556;PMS3003;52200;53.490;14.376;2024-03-08T11:56:12;28.00;19.20;10.20
65556;PMS3003;52200;53.490;14.376;2024-03-08T11:58:39;32.60;20.00;11.00
65556;PMS3003;52200;53.490;14.376;2024-03-08T12:01:06;25.40;18.20;11.80
65556;PMS3003;52200;53.490;14.376;2024-03-08T12:03:34;31.40;18.20;9.00
65556;PMS3003;52200;53.490;14.376;2024-03-08T12:06:00;27.75;19.25;11.75
65556;PMS3003;52200;53.490;14.376;2024-03-08T12:08:27;27.40;18.60;9.00
65556;PMS3003;52200;53.490;14.376;2024-03-08T12:10:55;29.60;19.60;10.00
65556;PMS3003;52200;53.490;14.376;2024-03-08T12:13:25;28.20;18.00;10.00
65556;PMS3003;52200;53.490;14.376;2024-03-08T12:15:55;33.20;19.80;10.00
65556;PMS3003;52200;53.490;14.376;2024-03-08T12:18:25;29.20;15.40;9.60
65556;PMS3003;52200;53.490;14.376;2024-03-08T12:20:51;29.20;18.80;10.20
65556;PMS3003;52200;53.490;14.376;2024-03-08T12:23:28;26.40;18.20;9.20
65556;PMS3003;52200;53.490;14.376;2024-03-08T12:25:54;24.25;16.25;8.00
65556;PMS3003;52200;53.490;14.376;2024-03-08T12:28:19;30.00;16.00;9.00
65556;PMS3003;52200;53.490;14.376;2024-03-08T12:30:50;30.80;14.60;8.60
65556;PMS3003;52200;53.490;14.376;2024-03-08T12:33:19;26.20;18.00;9.00
65556;PMS3003;52200;53.490;14.376;2024-03-08T12:35:51;31.00;21.00;9.50
65556;PMS3003;52200;53.490;14.376;2024-03-08T12:38:23;29.20;17.40;9.00
65556;PMS3003;52200;53.490;14.376;2024-03-08T12:40:57;34.00;20.00;12.00
65556;PMS3003;52200;53.490;14.376;2024-03-08T12:43:24;31.00;19.60;9.80
65556;PMS3003;52200;53.490;14.376;2024-03-08T12:45:49;28.75;17.50;10.00
65556;PMS3003;52200;53.490;14.376;2024-03-08T12:48:16;31.20;22.80;10.20
65556;PMS3003;52200;53.490;14.376;2024-03-08T12:50:42;26.40;19.20;11.00
65556;PMS3003;52200;53.490;14.376;2024-03-08T12:53:12;25.60;17.60;10.00
65556;PMS3003;52200;53.490;14.376;2024-03-08T12:55:38;26.80;17.20;11.20
65556;PMS3003;52200;53.490;14.376;2024-03-08T12:58:05;29.60;22.40;12.20
65556;PMS3003;52200;53.490;14.376;2024-03-08T13:00:33;34.20;24.00;12.80
65556;PMS3003;52200;53.490;14.376;2024-03-08T13:03:01;32.40;22.00;11.80
65556;PMS3003;52200;53.490;14.376;2024-03-08T13:05:27;29.60;18.40;10.20
65556;PMS3003;52200;53.490;14.376;2024-03-08T13:07:53;36.25;23.75;12.75
65556;PMS3003;52200;53.490;14.376;2024-03-08T13:10:20;32.00;19.60;12.40
65556;PMS3003;52200;53.490;14.376;2024-03-08T13:12:45;37.60;20.00;11.60
65556;PMS3003;52200;53.490;14.376;2024-03-08T13:15:11;31.50;18.00;12.50
65556;PMS3003;52200;53.490;14.376;2024-03-08T13:17:41;33.40;20.80;13.00
65556;PMS3003;52200;53.490;14.376;2024-03-08T13:20:07;31.00;20.20;13.00
65556;PMS3003;52200;53.490;14.376;2024-03-08T13:22:34;35.40;19.40;11.00
65556;PMS3003;52200;53.490;14.376;2024-03-08T13:25:00;27.60;18.80;11.80
65556;PMS3003;52200;53.490;14.376;2024-03-08T13:27:27;25.50;14.75;9.00
65556;PMS3003;52200;53.490;14.376;2024-03-08T13:29:53;31.60;18.20;10.00
65556;PMS3003;52200;53.490;14.376;2024-03-08T13:32:18;25.25;18.00;9.25
65556;PMS3003;52200;53.490;14.376;2024-03-08T13:34:47;26.20;15.80;9.00
65556;PMS3003;52200;53.490;14.376;2024-03-08T13:37:13;26.25;16.75;9.00
65556;PMS3003;52200;53.490;14.376;2024-03-08T13:39:41;27.40;16.40;9.20
65556;PMS3003;52200;53.490;14.376;2024-03-08T13:42:09;24.60;15.60;8.20
65556;PMS3003;52200;53.490;14.376;2024-03-08T13:44:39;28.20;15.60;8.00
65556;PMS3003;52200;53.490;14.376;2024-03-08T13:47:08;25.80;15.00;8.00